Time;durP1;ratioP1;P1;durP2;ratioP2;P2;SDS_P1;SDS_P2;PMS_P1;PMS_P2;Temp;Humidity;BMP_temperature;BMP_pressure;BME280_temperature;BME280_humidity;BME280_pressure;Samples;Min_cycle;Max_cycle;Signal;HPM_P1;HPM_P2
2024/02/23 00:02:18;;;;;;;37.00;24.15;;;;;;;-145.63;100.00;61273.97;5013763;28;20054;-65
2024/02/23 00:04:44;;;;;;;36.70;24.88;;;;;;;-145.63;100.00;61273.97;5015500;28;20034;-66
2024/02/23 00:07:11;;;;;;;38.88;25.50;;;;;;;-145.63;100.00;61273.97;5015095;28;20440;-66
2024/02/23 00:09:37;;;;;;;39.25;25.40;;;;;;;-145.63;100.00;61273.97;5009307;28;20034;-66
2024/02/23 00:12:02;;;;;;;38.15;25.55;;;;;;;-145.63;100.00;61273.97;5015213;28;20068;-65
2024/02/23 00:14:30;;;;;;;37.60;25.00;;;;;;;-145.63;100.00;61273.97;5008948;28;20035;-67
2024/02/23 00:16:57;;;;;;;38.17;24.60;;;;;;;-145.63;100.00;61273.97;5000652;28;20034;-65
2024/02/23 00:19:24;;;;;;;37.25;24.35;;;;;;;-145.63;100.00;61273.97;5034988;28;20033;-65
2024/02/23 00:21:50;;;;;;;35.42;25.15;;;;;;;-145.63;100.00;61273.97;5016656;28;20042;-66
2024/02/23 00:24:17;;;;;;;39.22;24.73;;;;;;;-145.63;100.00;61273.97;5014528;28;20033;-65
2024/02/23 00:26:43;;;;;;;37.22;23.80;;;;;;;-145.63;100.00;61273.97;5015203;28;20033;-64
2024/02/23 00:29:09;;;;;;;35.63;23.17;;;;;;;-145.63;100.00;61273.97;5034777;28;20033;-65
2024/02/23 00:31:37;;;;;;;37.40;24.17;;;;;;;-145.63;100.00;61273.97;5034502;28;20052;-65
2024/02/23 00:34:02;;;;;;;42.38;25.40;;;;;;;-145.63;100.00;61273.97;5014924;28;20049;-64
2024/02/23 00:36:28;;;;;;;35.55;22.98;;;;;;;-145.63;100.00;61273.97;5000003;28;20053;-65
2024/02/23 00:38:53;;;;;;;37.20;24.27;;;;;;;-145.63;100.00;61273.97;5004457;28;20033;-64
2024/02/23 00:41:19;;;;;;;32.25;22.30;;;;;;;-145.63;100.00;61273.97;5008822;28;20030;-65
2024/02/23 00:43:45;;;;;;;36.08;23.45;;;;;;;-145.63;100.00;61273.97;4996800;28;20026;-64
2024/02/23 00:46:11;;;;;;;37.03;23.50;;;;;;;-145.63;100.00;61273.97;5034661;28;20041;-65
2024/02/23 00:48:36;;;;;;;35.92;22.73;;;;;;;-145.63;100.00;61273.97;5018407;28;20040;-65
2024/02/23 00:51:02;;;;;;;31.85;21.77;;;;;;;-145.63;100.00;61273.97;5003031;28;20064;-64
2024/02/23 00:53:30;;;;;;;32.53;21.40;;;;;;;-145.63;100.00;61273.97;5007390;28;20382;-66
2024/02/23 00:55:56;;;;;;;32.42;21.88;;;;;;;-145.63;100.00;61273.97;5012230;28;20116;-66
2024/02/23 00:58:21;;;;;;;35.03;22.60;;;;;;;-145.63;100.00;61273.97;4995395;28;20070;-65
2024/02/23 01:00:47;;;;;;;31.90;21.52;;;;;;;-145.63;100.00;61273.97;5043834;28;20053;-65
2024/02/23 01:03:12;;;;;;;33.25;20.48;;;;;;;-145.63;100.00;61273.97;5014836;28;20060;-65
2024/02/23 01:05:39;;;;;;;36.20;23.52;;;;;;;-145.63;100.00;61273.97;5022364;28;20160;-65
2024/02/23 01:08:05;;;;;;;32.92;21.17;;;;;;;-145.63;100.00;61273.97;5030615;28;20049;-66
2024/02/23 01:10:31;;;;;;;32.10;21.48;;;;;;;-145.63;100.00;61273.97;5013853;28;20033;-65
2024/02/23 01:12:57;;;;;;;31.95;21.98;;;;;;;-145.63;100.00;61273.97;5014598;28;20037;-67
2024/02/23 01:15:22;;;;;;;35.08;22.55;;;;;;;-145.63;100.00;61273.97;5000613;28;20038;-65
2024/02/23 01:17:48;;;;;;;37.03;22.10;;;;;;;-145.63;100.00;61273.97;5012578;28;20025;-66
2024/02/23 01:20:14;;;;;;;32.97;21.15;;;;;;;-145.63;100.00;61273.97;5033689;28;20029;-65
2024/02/23 01:22:39;;;;;;;33.08;21.50;;;;;;;-145.63;100.00;61273.97;5023361;28;20045;-67
2024/02/23 01:25:05;;;;;;;36.03;22.50;;;;;;;-145.63;100.00;61273.97;5013305;28;20042;-65
2024/02/23 01:27:31;;;;;;;35.03;22.38;;;;;;;-145.63;100.00;61273.97;5014037;28;20459;-66
2024/02/23 01:29:56;;;;;;;34.72;22.30;;;;;;;-145.63;100.00;61273.97;5024357;28;20091;-65
2024/02/23 01:32:22;;;;;;;32.35;21.45;;;;;;;-145.63;100.00;61273.97;5033564;28;20403;-65
2024/02/23 01:34:48;;;;;;;32.10;21.58;;;;;;;-145.63;100.00;61273.97;5032883;28;20045;-65
2024/02/23 01:37:14;;;;;;;34.70;22.05;;;;;;;-145.63;100.00;61273.97;5013685;28;20455;-66
2024/02/23 01:39:40;;;;;;;31.48;21.23;;;;;;;-145.63;100.00;61273.97;5005875;28;20080;-65
2024/02/23 01:42:06;;;;;;;33.05;22.13;;;;;;;-145.63;100.00;61273.97;5012384;28;20109;-65
2024/02/23 01:44:31;;;;;;;29.65;19.25;;;;;;;-145.63;100.00;61273.97;5007143;28;20030;-65
2024/02/23 01:46:58;;;;;;;33.15;21.27;;;;;;;-145.63;100.00;61273.97;5004458;28;20033;-65
2024/02/23 01:49:29;;;;;;;32.28;20.88;;;;;;;-145.63;100.00;61273.97;5013692;28;20403;-66
2024/02/23 01:51:56;;;;;;;30.48;22.40;;;;;;;-145.63;100.00;61273.97;5014011;28;20029;-65
2024/02/23 01:54:22;;;;;;;32.40;22.42;;;;;;;-145.63;100.00;61273.97;5004412;28;20030;-66
2024/02/23 01:56:48;;;;;;;28.90;19.25;;;;;;;-145.63;100.00;61273.97;5012528;28;20026;-66
2024/02/23 01:59:14;;;;;;;34.03;22.05;;;;;;;-145.63;100.00;61273.97;5009679;28;20026;-67
2024/02/23 02:01:43;;;;;;;33.33;21.55;;;;;;;-145.63;100.00;61273.97;4992850;28;20057;-66
2024/02/23 02:04:09;;;;;;;33.45;21.70;;;;;;;-145.63;100.00;61273.97;5015617;28;20030;-66
2024/02/23 02:06:35;;;;;;;36.63;21.60;;;;;;;-145.63;100.00;61273.97;5017457;28;20026;-66
2024/02/23 02:09:01;;;;;;;31.55;20.80;;;;;;;-145.63;100.00;61273.97;5008250;28;20030;-66
2024/02/23 02:11:26;;;;;;;34.70;22.35;;;;;;;-145.63;100.00;61273.97;5015386;28;20459;-66
2024/02/23 02:13:52;;;;;;;34.75;21.80;;;;;;;-145.63;100.00;61273.97;5017342;28;20030;-65
2024/02/23 02:16:17;;;;;;;36.25;23.10;;;;;;;-145.63;100.00;61273.97;5017346;28;20156;-66
2024/02/23 02:18:44;;;;;;;36.25;22.85;;;;;;;-145.63;100.00;61273.97;5003453;28;20038;-67
2024/02/23 02:21:10;;;;;;;37.67;22.75;;;;;;;-145.63;100.00;61273.97;5010643;28;20042;-66
2024/02/23 02:23:37;;;;;;;36.63;23.80;;;;;;;-145.63;100.00;61273.97;5008819;28;20044;-65
2024/02/23 02:26:03;;;;;;;34.03;22.15;;;;;;;-145.63;100.00;61273.97;5012764;28;20657;-66
2024/02/23 02:28:29;;;;;;;35.25;22.33;;;;;;;-145.63;100.00;61273.97;5017112;28;20057;-68
2024/02/23 02:30:56;;;;;;;35.65;22.70;;;;;;;-145.63;100.00;61273.97;5000111;28;20449;-66
2024/02/23 02:33:22;;;;;;;35.88;23.42;;;;;;;-145.63;100.00;61273.97;5010182;28;20049;-66
2024/02/23 02:35:49;;;;;;;37.30;24.08;;;;;;;-145.63;100.00;61273.97;5008922;28;20097;-66
2024/02/23 02:38:15;;;;;;;37.55;22.83;;;;;;;-145.63;100.00;61273.97;5001213;28;20549;-66
2024/02/23 02:40:41;;;;;;;33.50;22.45;;;;;;;-145.63;100.00;61273.97;5015769;28;20042;-66
2024/02/23 02:43:07;;;;;;;32.90;21.52;;;;;;;-145.63;100.00;61273.97;5014355;28;20042;-66
2024/02/23 02:45:32;;;;;;;38.30;24.23;;;;;;;-145.63;100.00;61273.97;5017125;28;20119;-65
2024/02/23 02:48:00;;;;;;;39.03;23.35;;;;;;;-145.63;100.00;61273.97;5006722;28;20042;-66
2024/02/23 02:50:25;;;;;;;32.58;21.98;;;;;;;-145.63;100.00;61273.97;5033418;28;20113;-66
2024/02/23 02:52:51;;;;;;;39.85;23.20;;;;;;;-145.63;100.00;61273.97;5017170;28;20172;-65
2024/02/23 02:55:16;;;;;;;37.97;22.67;;;;;;;-145.63;100.00;61273.97;5016379;28;20502;-63
2024/02/23 02:57:44;;;;;;;35.10;21.75;;;;;;;-145.63;100.00;61273.97;5003499;28;20050;-67
2024/02/23 03:00:10;;;;;;;36.42;24.40;;;;;;;-145.63;100.00;61273.97;5008024;28;20074;-65
2024/02/23 03:02:36;;;;;;;37.67;24.00;;;;;;;-145.63;100.00;61273.97;5016813;28;20109;-65
2024/02/23 03:05:02;;;;;;;35.25;23.90;;;;;;;-145.63;100.00;61273.97;5016664;28;20215;-66
2024/02/23 03:07:29;;;;;;;40.47;23.77;;;;;;;-145.63;100.00;61273.97;5016918;28;20037;-65
2024/02/23 03:09:54;;;;;;;35.50;22.08;;;;;;;-145.63;100.00;61273.97;5006081;28;20021;-66
2024/02/23 03:12:20;;;;;;;39.17;23.45;;;;;;;-145.63;100.00;61273.97;5012874;28;20038;-66
2024/02/23 03:14:46;;;;;;;35.78;23.13;;;;;;;-145.63;100.00;61273.97;5007565;28;20046;-66
2024/02/23 03:17:11;;;;;;;36.72;23.55;;;;;;;-145.63;100.00;61273.97;4999229;28;20030;-65
2024/02/23 03:19:38;;;;;;;36.42;21.58;;;;;;;-145.63;100.00;61273.97;5016635;28;20459;-67
2024/02/23 03:22:04;;;;;;;34.03;21.67;;;;;;;-145.63;100.00;61273.97;4998543;28;20030;-66
2024/02/23 03:24:30;;;;;;;36.13;23.10;;;;;;;-145.63;100.00;61273.97;5013123;28;20030;-66
2024/02/23 03:26:56;;;;;;;37.15;23.27;;;;;;;-145.63;100.00;61273.97;5012754;28;20057;-66
2024/02/23 03:29:24;;;;;;;41.42;23.70;;;;;;;-145.63;100.00;61273.97;5010289;28;20074;-66
2024/02/23 03:31:50;;;;;;;39.85;24.05;;;;;;;-145.63;100.00;61273.97;4996812;28;20398;-66
2024/02/23 03:34:16;;;;;;;37.65;24.25;;;;;;;-145.63;100.00;61273.97;4996196;28;20456;-67
2024/02/23 03:36:41;;;;;;;39.95;21.77;;;;;;;-145.63;100.00;61273.97;5011425;28;20030;-66
2024/02/23 03:39:07;;;;;;;39.35;23.80;;;;;;;-145.63;100.00;61273.97;5005470;28;20101;-67
2024/02/23 03:41:32;;;;;;;36.38;23.30;;;;;;;-145.63;100.00;61273.97;5010486;28;20452;-65
2024/02/23 03:43:58;;;;;;;35.30;22.75;;;;;;;-145.63;100.00;61273.97;5014629;28;20044;-65
2024/02/23 03:46:24;;;;;;;37.13;23.83;;;;;;;-145.63;100.00;61273.97;4995944;28;20042;-66
2024/02/23 03:48:50;;;;;;;38.95;23.98;;;;;;;-145.63;100.00;61273.97;5010774;28;20030;-66
2024/02/23 03:51:16;;;;;;;41.30;21.95;;;;;;;-145.63;100.00;61273.97;5015789;28;20037;-67
2024/02/23 03:53:41;;;;;;;39.55;23.70;;;;;;;-145.63;100.00;61273.97;5009023;28;20034;-65
2024/02/23 03:56:08;;;;;;;38.53;22.23;;;;;;;-145.63;100.00;61273.97;5009723;28;20030;-67
2024/02/23 03:58:33;;;;;;;38.70;22.55;;;;;;;-145.63;100.00;61273.97;5002843;28;20475;-65
2024/02/23 04:00:59;;;;;;;42.90;24.20;;;;;;;-145.63;100.00;61273.97;5007704;28;20108;-65
2024/02/23 04:03:25;;;;;;;40.72;23.60;;;;;;;-145.63;100.00;61273.97;5015575;28;20038;-65
2024/02/23 04:05:50;;;;;;;39.88;24.23;;;;;;;-145.63;100.00;61273.97;5014982;28;20444;-66
2024/02/23 04:08:16;;;;;;;37.97;23.13;;;;;;;-145.63;100.00;61273.97;5012613;28;20391;-65
2024/02/23 04:10:41;;;;;;;36.88;22.67;;;;;;;-145.63;100.00;61273.97;5003613;28;20057;-66
2024/02/23 04:13:07;;;;;;;38.97;21.70;;;;;;;-145.63;100.00;61273.97;5013663;28;20033;-65
2024/02/23 04:15:32;;;;;;;38.47;22.17;;;;;;;-145.63;100.00;61273.97;5008444;28;20041;-65
2024/02/23 04:17:58;;;;;;;40.17;23.05;;;;;;;-145.63;100.00;61273.97;5013742;28;20041;-65
2024/02/23 04:20:24;;;;;;;42.72;23.50;;;;;;;-145.63;100.00;61273.97;5014697;28;20025;-66
2024/02/23 04:22:49;;;;;;;42.75;23.77;;;;;;;-145.63;100.00;61273.97;5015316;28;20026;-66
2024/02/23 04:25:15;;;;;;;38.13;22.83;;;;;;;-145.63;100.00;61273.97;5013825;28;20033;-66
2024/02/23 04:27:40;;;;;;;37.72;20.63;;;;;;;-145.63;100.00;61273.97;5009698;28;20501;-66
2024/02/23 04:30:07;;;;;;;37.33;22.92;;;;;;;-145.63;100.00;61273.97;5005993;28;20038;-66
2024/02/23 04:32:32;;;;;;;39.13;22.67;;;;;;;-145.63;100.00;61273.97;5013742;28;20361;-65
2024/02/23 04:34:58;;;;;;;39.00;23.27;;;;;;;-145.63;100.00;61273.97;5014511;28;20049;-66
2024/02/23 04:37:24;;;;;;;43.20;23.42;;;;;;;-145.63;100.00;61273.97;5013599;28;20045;-67
2024/02/23 04:39:49;;;;;;;40.60;22.92;;;;;;;-145.63;100.00;61273.97;5014485;28;20037;-65
2024/02/23 04:42:15;;;;;;;40.47;24.02;;;;;;;-145.63;100.00;61273.97;5009522;28;20120;-66
2024/02/23 04:44:43;;;;;;;39.35;22.95;;;;;;;-145.63;100.00;61273.97;5008284;28;20046;-66
2024/02/23 04:47:09;;;;;;;40.17;23.40;;;;;;;-145.63;100.00;61273.97;5008043;28;20113;-67
2024/02/23 04:49:35;;;;;;;40.38;22.92;;;;;;;-145.63;100.00;61273.97;4997096;28;20077;-67
2024/02/23 04:52:01;;;;;;;39.70;23.50;;;;;;;-145.63;100.00;61273.97;5013287;28;20037;-65
2024/02/23 04:54:26;;;;;;;37.10;22.23;;;;;;;-145.63;100.00;61273.97;5013163;28;20045;-64
2024/02/23 04:56:52;;;;;;;40.33;24.05;;;;;;;-145.63;100.00;61273.97;5006189;28;20030;-66
2024/02/23 04:59:18;;;;;;;40.15;21.67;;;;;;;-145.63;100.00;61273.97;5011319;28;20045;-65
2024/02/23 05:01:43;;;;;;;40.95;22.50;;;;;;;-145.63;100.00;61273.97;5011144;28;20033;-66
2024/02/23 05:04:09;;;;;;;42.15;23.92;;;;;;;-145.63;100.00;61273.97;5013988;28;20030;-67
2024/02/23 05:06:35;;;;;;;43.50;24.45;;;;;;;-145.63;100.00;61273.97;5010808;28;20045;-65
2024/02/23 05:09:01;;;;;;;37.55;20.50;;;;;;;-145.63;100.00;61273.97;5002283;28;20057;-65
2024/02/23 05:11:27;;;;;;;42.78;23.63;;;;;;;-145.63;100.00;61273.97;5009100;28;20040;-64
2024/02/23 05:13:53;;;;;;;40.42;23.35;;;;;;;-145.63;100.00;61273.97;5012183;28;20034;-65
2024/02/23 05:16:18;;;;;;;43.47;22.83;;;;;;;-145.63;100.00;61273.97;4995034;28;20034;-67
2024/02/23 05:18:46;;;;;;;38.28;22.83;;;;;;;-145.63;100.00;61273.97;5009477;28;20026;-65
2024/02/23 05:21:12;;;;;;;39.55;22.83;;;;;;;-145.63;100.00;61273.97;5004093;28;20459;-66
2024/02/23 05:23:38;;;;;;;37.90;22.25;;;;;;;-145.63;100.00;61273.97;5014416;28;20034;-66
2024/02/23 05:26:03;;;;;;;40.33;23.58;;;;;;;-145.63;100.00;61273.97;5012623;28;20088;-67
2024/02/23 05:28:29;;;;;;;39.80;23.15;;;;;;;-145.63;100.00;61273.97;5008276;28;20029;-67
2024/02/23 05:30:56;;;;;;;36.42;21.25;;;;;;;-145.63;100.00;61273.97;5014159;28;20058;-65
2024/02/23 05:33:21;;;;;;;39.67;22.70;;;;;;;-145.63;100.00;61273.97;5002396;28;20061;-67
2024/02/23 05:35:48;;;;;;;40.22;23.13;;;;;;;-145.63;100.00;61273.97;5010048;28;20034;-66
2024/02/23 05:38:15;;;;;;;47.60;23.98;;;;;;;-145.63;100.00;61273.97;5012982;28;20061;-65
2024/02/23 05:40:40;;;;;;;37.83;23.23;;;;;;;-145.63;100.00;61273.97;5013572;28;20045;-67
2024/02/23 05:43:06;;;;;;;40.97;24.00;;;;;;;-145.63;100.00;61273.97;5003355;28;20365;-66
2024/02/23 05:45:32;;;;;;;36.28;22.60;;;;;;;-145.63;100.00;61273.97;5007384;28;20092;-67
2024/02/23 05:47:57;;;;;;;40.22;24.00;;;;;;;-145.63;100.00;61273.97;5005900;28;20026;-67
2024/02/23 05:50:23;;;;;;;41.35;22.25;;;;;;;-145.63;100.00;61273.97;5002157;28;20042;-66
2024/02/23 05:52:49;;;;;;;42.55;23.95;;;;;;;-145.63;100.00;61273.97;5012852;28;20033;-66
2024/02/23 05:55:14;;;;;;;39.45;24.20;;;;;;;-145.63;100.00;61273.97;5013115;28;20038;-65
2024/02/23 05:57:40;;;;;;;43.67;24.42;;;;;;;-145.63;100.00;61273.97;5006194;28;20030;-65
2024/02/23 06:00:07;;;;;;;42.72;23.98;;;;;;;-145.63;100.00;61273.97;5013169;28;20038;-66
2024/02/23 06:02:33;;;;;;;41.85;23.80;;;;;;;-145.63;100.00;61273.97;5012346;28;20061;-65
2024/02/23 06:04:58;;;;;;;40.58;24.48;;;;;;;-145.63;100.00;61273.97;5013985;28;20135;-66
2024/02/23 06:07:30;;;;;;;39.65;23.40;;;;;;;-145.63;100.00;61273.97;5013255;28;20050;-66
2024/02/23 06:09:56;;;;;;;38.03;22.13;;;;;;;-145.63;100.00;61273.97;5011802;28;20038;-66
2024/02/23 06:12:22;;;;;;;35.97;22.80;;;;;;;-145.63;100.00;61273.97;5005303;28;20097;-67
2024/02/23 06:14:48;;;;;;;45.47;23.67;;;;;;;-145.63;100.00;61273.97;5007476;28;20027;-68
2024/02/23 06:17:13;;;;;;;38.83;22.65;;;;;;;-145.63;100.00;61273.97;4995300;28;20030;-66
2024/02/23 06:19:39;;;;;;;37.35;23.30;;;;;;;-145.63;100.00;61273.97;5013498;28;20034;-66
2024/02/23 06:22:04;;;;;;;41.72;22.63;;;;;;;-145.63;100.00;61273.97;5013397;28;20115;-66
2024/02/23 06:24:30;;;;;;;42.25;23.58;;;;;;;-145.63;100.00;61273.97;5013092;28;20034;-66
2024/02/23 06:26:57;;;;;;;40.72;23.52;;;;;;;-145.63;100.00;61273.97;5005879;28;20425;-65
2024/02/23 06:29:23;;;;;;;38.83;22.90;;;;;;;-145.63;100.00;61273.97;5012622;28;20475;-67
2024/02/23 06:31:49;;;;;;;39.00;23.17;;;;;;;-145.63;100.00;61273.97;5013402;28;20137;-65
2024/02/23 06:34:18;;;;;;;40.33;23.17;;;;;;;-145.63;100.00;61273.97;5002337;28;20113;-66
2024/02/23 06:36:46;;;;;;;41.53;24.40;;;;;;;-145.63;100.00;61273.97;5011654;28;20034;-65
2024/02/23 06:39:12;;;;;;;39.88;23.73;;;;;;;-145.63;100.00;61273.97;5010593;28;20095;-66
2024/02/23 06:41:38;;;;;;;44.78;23.58;;;;;;;-145.63;100.00;61273.97;5013371;28;20033;-66
2024/02/23 06:44:04;;;;;;;39.65;23.02;;;;;;;-145.63;100.00;61273.97;5012342;28;20018;-64
2024/02/23 06:46:30;;;;;;;40.85;24.05;;;;;;;-145.63;100.00;61273.97;5018752;28;20041;-66
2024/02/23 06:48:56;;;;;;;41.92;23.15;;;;;;;-145.63;100.00;61273.97;5012341;28;20700;-65
2024/02/23 06:51:21;;;;;;;42.30;23.75;;;;;;;-145.63;100.00;61273.97;5014470;28;20037;-65
2024/02/23 06:53:47;;;;;;;36.17;21.65;;;;;;;-145.63;100.00;61273.97;5016253;28;20022;-66
2024/02/23 06:56:13;;;;;;;34.42;20.90;;;;;;;-145.63;100.00;61273.97;5014321;28;20045;-66
2024/02/23 06:58:39;;;;;;;36.58;22.00;;;;;;;-145.63;100.00;61273.97;5012363;28;20037;-67
2024/02/23 07:01:06;;;;;;;37.97;22.42;;;;;;;-145.63;100.00;61273.97;5016616;28;20375;-66
2024/02/23 07:03:33;;;;;;;32.88;20.98;;;;;;;-145.63;100.00;61273.97;5016727;28;20072;-65
2024/02/23 07:05:58;;;;;;;39.75;21.58;;;;;;;-145.63;100.00;61273.97;5016021;28;20042;-68
2024/02/23 07:08:24;;;;;;;38.67;21.10;;;;;;;-145.63;100.00;61273.97;5013079;28;20034;-67
2024/02/23 07:10:50;;;;;;;37.10;22.10;;;;;;;-145.63;100.00;61273.97;5013659;28;20998;-65
2024/02/23 07:13:17;;;;;;;34.80;21.00;;;;;;;-145.63;100.00;61273.97;5012750;28;20038;-65
2024/02/23 07:15:43;;;;;;;37.17;22.50;;;;;;;-145.63;100.00;61273.97;5029569;28;20033;-65
2024/02/23 07:18:09;;;;;;;36.83;21.60;;;;;;;-145.63;100.00;61273.97;5020527;28;20034;-64
2024/02/23 07:20:38;;;;;;;39.25;22.90;;;;;;;-145.63;100.00;61273.97;5012264;28;20443;-64
2024/02/23 07:23:04;;;;;;;39.22;21.65;;;;;;;-145.63;100.00;61273.97;5008543;28;20034;-66
2024/02/23 07:25:30;;;;;;;41.78;22.00;;;;;;;-145.63;100.00;61273.97;5015213;28;20490;-64
2024/02/23 07:27:55;;;;;;;34.83;21.60;;;;;;;-145.63;100.00;61273.97;5015800;28;20030;-65
2024/02/23 07:30:21;;;;;;;34.22;20.30;;;;;;;-145.63;100.00;61273.97;5021683;28;20044;-64
2024/02/23 07:32:47;;;;;;;39.15;21.83;;;;;;;-145.63;100.00;61273.97;5015759;28;20511;-64
2024/02/23 07:35:13;;;;;;;36.95;21.50;;;;;;;-145.63;100.00;61273.97;5015099;28;20038;-65
2024/02/23 07:37:39;;;;;;;36.05;21.98;;;;;;;-145.63;100.00;61273.97;5004434;28;20120;-64
2024/02/23 07:40:05;;;;;;;39.17;21.92;;;;;;;-145.63;100.00;61273.97;5032004;28;20053;-66
2024/02/23 07:42:32;;;;;;;36.47;21.92;;;;;;;-145.63;100.00;61273.97;5017122;28;20108;-67
2024/02/23 07:44:58;;;;;;;33.65;20.58;;;;;;;-145.63;100.00;61273.97;5015036;28;20040;-65
2024/02/23 07:47:26;;;;;;;35.60;19.98;;;;;;;-145.63;100.00;61273.97;5012289;28;20109;-66
2024/02/23 07:49:53;;;;;;;34.70;20.10;;;;;;;-145.63;100.00;61273.97;5000744;28;20048;-66
2024/02/23 07:52:19;;;;;;;33.00;19.40;;;;;;;-145.63;100.00;61273.97;5015713;28;20104;-67
2024/02/23 07:54:44;;;;;;;31.48;19.67;;;;;;;-145.63;100.00;61273.97;5015764;28;20176;-65
2024/02/23 07:57:10;;;;;;;30.60;18.92;;;;;;;-145.63;100.00;61273.97;5012819;28;20037;-65
2024/02/23 07:59:35;;;;;;;30.75;17.95;;;;;;;-145.63;100.00;61273.97;5014299;28;20044;-65
2024/02/23 08:02:01;;;;;;;39.08;19.30;;;;;;;-145.63;100.00;61273.97;5013865;28;20073;-66
2024/02/23 08:04:27;;;;;;;33.80;18.90;;;;;;;-145.63;100.00;61273.97;5014443;28;20507;-65
2024/02/23 08:06:52;;;;;;;32.80;19.10;;;;;;;-145.63;100.00;61273.97;5014851;28;20033;-65
2024/02/23 08:09:18;;;;;;;33.83;20.25;;;;;;;-145.63;100.00;61273.97;5014360;28;20459;-65
2024/02/23 08:11:43;;;;;;;32.15;19.73;;;;;;;-145.63;100.00;61273.97;5013557;28;20038;-66
2024/02/23 08:14:09;;;;;;;32.58;17.98;;;;;;;-145.63;100.00;61273.97;5013842;28;20029;-65
2024/02/23 08:16:35;;;;;;;30.58;18.35;;;;;;;-145.63;100.00;61273.97;5014516;28;20113;-64
2024/02/23 08:19:01;;;;;;;33.90;19.38;;;;;;;-145.63;100.00;61273.97;5014107;28;20113;-65
2024/02/23 08:21:26;;;;;;;34.05;19.48;;;;;;;-145.63;100.00;61273.97;5014382;28;20482;-66
2024/02/23 08:23:52;;;;;;;32.13;19.27;;;;;;;-145.63;100.00;61273.97;5014255;28;20112;-66
2024/02/23 08:26:18;;;;;;;31.05;19.10;;;;;;;-145.63;100.00;61273.97;5008508;28;20164;-66
2024/02/23 08:28:44;;;;;;;35.83;19.30;;;;;;;-145.63;100.00;61273.97;5012823;28;20104;-65
2024/02/23 08:31:09;;;;;;;36.55;19.67;;;;;;;-145.63;100.00;61273.97;5013821;28;20042;-64
2024/02/23 08:33:35;;;;;;;32.80;19.55;;;;;;;-145.63;100.00;61273.97;5011861;28;20041;-65
2024/02/23 08:36:01;;;;;;;36.00;19.60;;;;;;;-145.63;100.00;61273.97;5010412;28;20053;-67
2024/02/23 08:38:26;;;;;;;30.67;18.23;;;;;;;-145.63;100.00;61273.97;5009686;28;20046;-69
2024/02/23 08:40:52;;;;;;;32.88;19.95;;;;;;;-145.63;100.00;61273.97;5014306;28;20459;-65
2024/02/23 08:43:17;;;;;;;34.90;20.25;;;;;;;-145.63;100.00;61273.97;5013170;28;20046;-64
2024/02/23 08:45:43;;;;;;;33.10;19.45;;;;;;;-145.63;100.00;61273.97;5014285;28;20025;-71
2024/02/23 08:48:09;;;;;;;33.72;18.75;;;;;;;-145.63;100.00;61273.97;5014517;28;20105;-63
2024/02/23 08:50:34;;;;;;;32.38;19.25;;;;;;;-145.63;100.00;61273.97;5014480;28;20087;-65
2024/02/23 08:53:00;;;;;;;31.08;18.40;;;;;;;-145.63;100.00;61273.97;5014240;28;20048;-64
2024/02/23 08:55:25;;;;;;;31.60;18.75;;;;;;;-145.63;100.00;61273.97;5012424;28;20036;-67
2024/02/23 08:57:51;;;;;;;32.40;17.95;;;;;;;-145.63;100.00;61273.97;5007169;28;20022;-64
2024/02/23 09:00:17;;;;;;;28.60;18.58;;;;;;;-145.63;100.00;61273.97;5009743;28;20495;-65
2024/02/23 09:02:42;;;;;;;30.98;18.55;;;;;;;-145.63;100.00;61273.97;4998340;28;20025;-64
2024/02/23 09:05:09;;;;;;;29.08;18.20;;;;;;;-145.63;100.00;61273.97;5012869;28;20121;-65
2024/02/23 09:07:35;;;;;;;32.35;17.90;;;;;;;-145.63;100.00;61273.97;5004331;28;20038;-65
2024/02/23 09:10:01;;;;;;;30.92;18.20;;;;;;;-145.63;100.00;61273.97;5011288;28;20120;-69
2024/02/23 09:12:27;;;;;;;28.80;16.60;;;;;;;-145.63;100.00;61273.97;5003883;28;20113;-66
2024/02/23 09:14:53;;;;;;;31.52;18.10;;;;;;;-145.63;100.00;61273.97;5012634;28;20045;-63
2024/02/23 09:17:20;;;;;;;30.75;17.92;;;;;;;-145.63;100.00;61273.97;5012816;28;20033;-65
2024/02/23 09:19:46;;;;;;;33.38;18.80;;;;;;;-145.63;100.00;61273.97;5013816;28;20026;-65
2024/02/23 09:22:12;;;;;;;30.10;18.00;;;;;;;-145.63;100.00;61273.97;5012725;28;20032;-64
2024/02/23 09:24:41;;;;;;;31.88;16.88;;;;;;;-145.63;100.00;61273.97;5012859;28;20030;-67
2024/02/23 09:27:07;;;;;;;31.73;18.70;;;;;;;-145.63;100.00;61273.97;5013583;28;20125;-63
2024/02/23 09:29:33;;;;;;;28.85;16.85;;;;;;;-145.63;100.00;61273.97;5009012;28;20432;-63
2024/02/23 09:31:58;;;;;;;28.98;17.27;;;;;;;-145.63;100.00;61273.97;5013167;28;20078;-65
2024/02/23 09:34:24;;;;;;;31.02;18.65;;;;;;;-145.63;100.00;61273.97;5013652;28;20117;-68
2024/02/23 09:36:50;;;;;;;31.58;17.92;;;;;;;-145.63;100.00;61273.97;5000930;28;20041;-64
2024/02/23 09:39:16;;;;;;;32.42;18.17;;;;;;;-145.63;100.00;61273.97;5001977;28;20030;-64
2024/02/23 09:41:42;;;;;;;29.23;17.27;;;;;;;-145.63;100.00;61273.97;5007827;28;20030;-63
2024/02/23 09:44:09;;;;;;;28.25;17.90;;;;;;;-145.63;100.00;61273.97;5012464;28;20116;-63
2024/02/23 09:46:36;;;;;;;32.13;18.83;;;;;;;-145.63;100.00;61273.97;4994713;28;20448;-64
2024/02/23 09:49:03;;;;;;;28.92;18.38;;;;;;;-145.63;100.00;61273.97;5001735;28;20021;-63
2024/02/23 09:51:29;;;;;;;31.00;19.00;;;;;;;-145.63;100.00;61273.97;5012756;28;20042;-64
2024/02/23 09:53:55;;;;;;;31.88;19.02;;;;;;;-145.63;100.00;61273.97;5011435;28;20033;-63
2024/02/23 09:56:26;;;;;;;30.27;18.35;;;;;;;-145.63;100.00;61273.97;5011820;28;20079;-64
2024/02/23 09:58:55;;;;;;;34.55;19.15;;;;;;;-145.63;100.00;61273.97;5011197;28;20054;-63
2024/02/23 10:01:30;;;;;;;31.17;18.33;;;;;;;-145.63;100.00;61273.97;5009635;28;20069;-65
2024/02/23 10:03:58;;;;;;;31.77;19.58;;;;;;;-145.63;100.00;61273.97;5011754;28;20533;-62
2024/02/23 10:06:24;;;;;;;34.30;18.40;;;;;;;-145.63;100.00;61273.97;5012638;28;20076;-65
2024/02/23 10:08:51;;;;;;;33.20;19.23;;;;;;;-145.63;100.00;61273.97;5013096;28;20018;-63
2024/02/23 10:11:24;;;;;;;29.80;18.45;;;;;;;-145.63;100.00;61273.97;5013779;28;20471;-63
2024/02/23 10:13:51;;;;;;;33.25;19.25;;;;;;;-145.63;100.00;61273.97;5013402;28;20057;-63
2024/02/23 10:16:20;;;;;;;30.83;19.52;;;;;;;-145.63;100.00;61273.97;5003646;28;20078;-62
2024/02/23 10:18:46;;;;;;;31.40;19.80;;;;;;;-145.63;100.00;61273.97;5011230;28;20372;-61
2024/02/23 10:21:12;;;;;;;36.25;20.23;;;;;;;-145.63;100.00;61273.97;5009152;28;20021;-62
2024/02/23 10:23:38;;;;;;;35.33;19.40;;;;;;;-145.63;100.00;61273.97;5010312;28;20022;-62
2024/02/23 10:26:06;;;;;;;29.83;18.75;;;;;;;-145.63;100.00;61273.97;5016505;28;20037;-62
2024/02/23 10:28:31;;;;;;;37.85;19.80;;;;;;;-145.63;100.00;61273.97;5015491;28;20029;-63
2024/02/23 10:30:57;;;;;;;29.60;17.20;;;;;;;-145.63;100.00;61273.97;5015227;28;20038;-63
2024/02/23 10:33:26;;;;;;;31.42;19.42;;;;;;;-145.63;100.00;61273.97;5015827;28;20041;-63
2024/02/23 10:35:57;;;;;;;35.88;20.38;;;;;;;-145.63;100.00;61273.97;5016876;28;20469;-63
2024/02/23 10:38:23;;;;;;;33.67;19.95;;;;;;;-145.63;100.00;61273.97;5015564;28;20113;-61
2024/02/23 10:40:54;;;;;;;31.73;20.38;;;;;;;-145.63;100.00;61273.97;5016668;28;20044;-60
2024/02/23 10:43:30;;;;;;;33.92;20.02;;;;;;;-145.63;100.00;61273.97;5016397;28;20030;-61
2024/02/23 10:45:58;;;;;;;33.80;20.42;;;;;;;-145.63;100.00;61273.97;5014992;28;20100;-61
2024/02/23 10:48:25;;;;;;;34.30;20.25;;;;;;;-145.63;100.00;61273.97;5014446;28;20022;-62
2024/02/23 10:50:50;;;;;;;33.03;19.50;;;;;;;-145.63;100.00;61273.97;5014104;28;20062;-63